Houghton Lake, MI (48629)

2:07 PM EDT on August 28, 2015 (GMT -0400)
W. Shore of Houghton Lake | | Change Station
CLOSE
Current Station
Personal Weather Station
Location: Houghton Lake, MI
Elevation: 1138 ft
Nearby Weather Stations

Elev 1138 ft 44.34 °N, 84.79 °W | Updated 15 minutes ago

Clear
Clear
70.3 °F
Feels Like 74 °F
N
2.7
Wind Variable Wind from SW

Today
High -- | Low -- °F
--% Chance of Precip.
Yesterday
High -- | Low -- °F
Precip. -- in
6:56 AM 8:22 PM
Waxing Gibbous, 98% visible
Pressure 30.16 in
Visibility 10.0 miles
Clouds Few 3300 ft
Heat Index 74 °F
Dew Point 60 °F
Humidity 71%
Rainfall 0.00 in
Snow Depth Not available.
UV 8 out of 12
Pollen 10.10 out of 12
Air Quality Not available.
Flu Activity Not available.
METAR KHTL 281753Z AUTO 21007KT 10SM FEW033 21/13 A3016 RMK AO2 SLP213 T02110128 10217 20117 58010
Pressure 30.16 in
Visibility 10.0 miles
Clouds Few 3300 ft
Heat Index 74 °F
Dew Point 60 °F
Humidity 71%
Rainfall 0.00 in
Snow Depth Not available.
UV 8 out of 12
Pollen 10.10 out of 12
Air Quality Not available.
Flu Activity Not available.
METAR KHTL 281753Z AUTO 21007KT 10SM FEW033 21/13 A3016 RMK AO2 SLP213 T02110128 10217 20117 58010
Nowcast | as of 2:00 PM EDT on August 28, 2015

At 3 PM...partly cloudy. Temperature 73. Southwest winds 8 mph. At 5 PM...mostly cloudy. Temperature 73. Southwest winds 8 mph. At 7 PM...mostly cloudy. Temperature 71. Southwest winds 7 mph. At 9 PM...cloudy. Temperature 67. Southwest winds 6 mph.

×

10-Day Weather Forecast

×

Almanac

Astronomy

Aug. 28, 2015 Rise Set
Actual Time
Civil Twilight
Nautical Twilight
Astronomical Twilight
Moon
Length of Visible Light
Length of Day
Tomorrow will be .
, % of the Moon is Illuminated

Today's Extremes

State Highs State Lows

Community

WunderPhotos

Upload Photos

1,850,447 photos uploaded!

WunderBlogs® & News

Nearby

Air Quality

  Air Quality AQ Index Pollutant
Not available.

Snow Depth

Station Depth Elevation

Earthquake Activity

City Distance Mag. Time & Date
Minimum magnitude displayed is 2.5.

Coastal Water Temperatures

Place Temperature

Stations

Nearby Weather Stations

Station Location Temp. Windchill Dew Point Humidity Wind Precip. Elev Updated Type